sensor_id;sensor_type;location;lat;lon;timestamp;temperature;humidity
16134;DHT22;8172;45.018;5.972;2022-09-21T00:01:47;10.20;69.00
16134;DHT22;8172;45.018;5.972;2022-09-21T00:06:55;10.20;69.10
16134;DHT22;8172;45.018;5.972;2022-09-21T00:12:02;10.20;69.20
16134;DHT22;8172;45.018;5.972;2022-09-21T00:17:09;10.20;69.20
16134;DHT22;8172;45.018;5.972;2022-09-21T00:22:16;10.20;69.30
16134;DHT22;8172;45.018;5.972;2022-09-21T00:27:23;10.20;69.40
16134;DHT22;8172;45.018;5.972;2022-09-21T00:32:35;10.20;69.60
16134;DHT22;8172;45.018;5.972;2022-09-21T00:37:42;10.20;69.40
16134;DHT22;8172;45.018;5.972;2022-09-21T00:42:49;10.20;69.50
16134;DHT22;8172;45.018;5.972;2022-09-21T00:47:56;10.20;69.60
16134;DHT22;8172;45.018;5.972;2022-09-21T00:53:03;10.10;69.60
16134;DHT22;8172;45.018;5.972;2022-09-21T00:58:14;10.10;69.60
16134;DHT22;8172;45.018;5.972;2022-09-21T01:03:21;10.00;69.70
16134;DHT22;8172;45.018;5.972;2022-09-21T01:08:28;10.00;69.70
16134;DHT22;8172;45.018;5.972;2022-09-21T01:24:05;9.80;69.70
16134;DHT22;8172;45.018;5.972;2022-09-21T01:34:20;9.80;69.70
16134;DHT22;8172;45.018;5.972;2022-09-21T01:39:26;9.80;69.60
16134;DHT22;8172;45.018;5.972;2022-09-21T01:44:36;9.80;69.50
16134;DHT22;8172;45.018;5.972;2022-09-21T01:49:48;9.70;69.50
16134;DHT22;8172;45.018;5.972;2022-09-21T01:54:57;9.80;69.70
16134;DHT22;8172;45.018;5.972;2022-09-21T02:00:05;9.70;69.70
16134;DHT22;8172;45.018;5.972;2022-09-21T02:05:15;9.70;69.60
16134;DHT22;8172;45.018;5.972;2022-09-21T02:10:27;9.70;69.50
16134;DHT22;8172;45.018;5.972;2022-09-21T02:15:42;9.70;69.50
16134;DHT22;8172;45.018;5.972;2022-09-21T02:25:58;9.70;69.30
16134;DHT22;8172;45.018;5.972;2022-09-21T02:36:25;9.60;69.10
16134;DHT22;8172;45.018;5.972;2022-09-21T02:41:32;9.60;69.10
16134;DHT22;8172;45.018;5.972;2022-09-21T02:46:38;9.50;68.90
16134;DHT22;8172;45.018;5.972;2022-09-21T02:51:47;9.50;68.90
16134;DHT22;8172;45.018;5.972;2022-09-21T02:56:56;9.40;69.10
16134;DHT22;8172;45.018;5.972;2022-09-21T03:02:04;9.40;69.40
16134;DHT22;8172;45.018;5.972;2022-09-21T03:07:13;9.40;69.70
16134;DHT22;8172;45.018;5.972;2022-09-21T03:12:20;9.30;69.70
16134;DHT22;8172;45.018;5.972;2022-09-21T03:17:27;9.30;69.80
16134;DHT22;8172;45.018;5.972;2022-09-21T03:22:35;9.40;69.80
16134;DHT22;8172;45.018;5.972;2022-09-21T03:27:42;9.40;69.50
16134;DHT22;8172;45.018;5.972;2022-09-21T03:32:51;9.40;69.40
16134;DHT22;8172;45.018;5.972;2022-09-21T03:37:59;9.30;69.50
16134;DHT22;8172;45.018;5.972;2022-09-21T03:43:06;9.30;69.50
16134;DHT22;8172;45.018;5.972;2022-09-21T03:48:13;9.30;69.70
16134;DHT22;8172;45.018;5.972;2022-09-21T03:53:20;9.30;69.90
16134;DHT22;8172;45.018;5.972;2022-09-21T03:58:27;9.30;70.20
16134;DHT22;8172;45.018;5.972;2022-09-21T04:03:34;9.30;70.40
16134;DHT22;8172;45.018;5.972;2022-09-21T04:08:41;9.30;70.50
16134;DHT22;8172;45.018;5.972;2022-09-21T04:13:50;9.30;70.70
16134;DHT22;8172;45.018;5.972;2022-09-21T04:18:59;9.40;70.80
16134;DHT22;8172;45.018;5.972;2022-09-21T04:24:06;9.40;70.90
16134;DHT22;8172;45.018;5.972;2022-09-21T04:29:14;9.40;71.00
16134;DHT22;8172;45.018;5.972;2022-09-21T04:34:21;9.40;71.20
16134;DHT22;8172;45.018;5.972;2022-09-21T04:39:28;9.50;71.30
16134;DHT22;8172;45.018;5.972;2022-09-21T04:44:35;9.50;71.30
16134;DHT22;8172;45.018;5.972;2022-09-21T04:49:42;9.50;71.40
16134;DHT22;8172;45.018;5.972;2022-09-21T04:54:49;9.50;71.50
16134;DHT22;8172;45.018;5.972;2022-09-21T04:59:56;9.50;71.60
16134;DHT22;8172;45.018;5.972;2022-09-21T05:05:03;9.50;71.60
16134;DHT22;8172;45.018;5.972;2022-09-21T05:10:11;9.50;71.70
16134;DHT22;8172;45.018;5.972;2022-09-21T05:15:19;9.50;71.60
16134;DHT22;8172;45.018;5.972;2022-09-21T05:20:27;9.50;71.50
16134;DHT22;8172;45.018;5.972;2022-09-21T05:25:34;9.50;71.50
16134;DHT22;8172;45.018;5.972;2022-09-21T05:30:42;9.50;71.40
16134;DHT22;8172;45.018;5.972;2022-09-21T05:35:57;9.50;71.40
16134;DHT22;8172;45.018;5.972;2022-09-21T05:41:00;9.50;71.40
16134;DHT22;8172;45.018;5.972;2022-09-21T05:46:16;9.50;71.20
16134;DHT22;8172;45.018;5.972;2022-09-21T05:51:28;9.50;71.30
16134;DHT22;8172;45.018;5.972;2022-09-21T06:01:45;9.50;71.40
16134;DHT22;8172;45.018;5.972;2022-09-21T06:06:47;9.60;71.40
16134;DHT22;8172;45.018;5.972;2022-09-21T06:11:54;9.60;71.60
16134;DHT22;8172;45.018;5.972;2022-09-21T06:17:02;9.60;71.90
16134;DHT22;8172;45.018;5.972;2022-09-21T06:22:09;9.70;72.00
16134;DHT22;8172;45.018;5.972;2022-09-21T06:27:16;9.70;72.20
16134;DHT22;8172;45.018;5.972;2022-09-21T06:32:23;9.80;72.30
16134;DHT22;8172;45.018;5.972;2022-09-21T06:37:31;9.80;72.40
16134;DHT22;8172;45.018;5.972;2022-09-21T06:42:39;9.80;72.40
16134;DHT22;8172;45.018;5.972;2022-09-21T06:47:46;9.90;72.50
16134;DHT22;8172;45.018;5.972;2022-09-21T06:52:53;9.90;72.60
16134;DHT22;8172;45.018;5.972;2022-09-21T06:58:02;9.90;72.60
16134;DHT22;8172;45.018;5.972;2022-09-21T07:03:10;9.90;72.70
16134;DHT22;8172;45.018;5.972;2022-09-21T07:08:18;9.80;72.70
16134;DHT22;8172;45.018;5.972;2022-09-21T07:13:27;9.80;72.70
16134;DHT22;8172;45.018;5.972;2022-09-21T07:18:36;9.70;72.80
16134;DHT22;8172;45.018;5.972;2022-09-21T07:23:45;9.60;73.00
16134;DHT22;8172;45.018;5.972;2022-09-21T07:28:52;9.60;73.30
16134;DHT22;8172;45.018;5.972;2022-09-21T07:34:00;9.60;73.30
16134;DHT22;8172;45.018;5.972;2022-09-21T07:39:09;9.60;73.30
16134;DHT22;8172;45.018;5.972;2022-09-21T07:44:16;9.70;73.40
16134;DHT22;8172;45.018;5.972;2022-09-21T07:49:25;9.70;73.60
16134;DHT22;8172;45.018;5.972;2022-09-21T07:54:34;9.80;73.60
16134;DHT22;8172;45.018;5.972;2022-09-21T07:59:42;10.00;73.60
16134;DHT22;8172;45.018;5.972;2022-09-21T08:04:50;10.10;73.50
16134;DHT22;8172;45.018;5.972;2022-09-21T08:09:58;10.30;73.20
16134;DHT22;8172;45.018;5.972;2022-09-21T08:15:07;10.40;73.20
16134;DHT22;8172;45.018;5.972;2022-09-21T08:20:18;10.60;73.20
16134;DHT22;8172;45.018;5.972;2022-09-21T08:25:25;10.70;73.30
16134;DHT22;8172;45.018;5.972;2022-09-21T08:30:32;10.80;73.10
16134;DHT22;8172;45.018;5.972;2022-09-21T08:35:39;11.00;73.20
16134;DHT22;8172;45.018;5.972;2022-09-21T08:40:47;11.00;73.10
16134;DHT22;8172;45.018;5.972;2022-09-21T08:45:56;11.10;73.20
16134;DHT22;8172;45.018;5.972;2022-09-21T08:51:06;11.10;73.10
16134;DHT22;8172;45.018;5.972;2022-09-21T08:56:15;11.20;73.20
16134;DHT22;8172;45.018;5.972;2022-09-21T09:01:28;11.30;73.30
16134;DHT22;8172;45.018;5.972;2022-09-21T09:22:06;11.50;72.60
16134;DHT22;8172;45.018;5.972;2022-09-21T09:27:19;11.50;72.50
16134;DHT22;8172;45.018;5.972;2022-09-21T09:32:27;11.50;72.60
16134;DHT22;8172;45.018;5.972;2022-09-21T09:37:36;11.60;72.40
16134;DHT22;8172;45.018;5.972;2022-09-21T09:42:49;11.70;72.00
16134;DHT22;8172;45.018;5.972;2022-09-21T09:58:17;11.90;71.70
16134;DHT22;8172;45.018;5.972;2022-09-21T10:03:26;12.00;71.30
16134;DHT22;8172;45.018;5.972;2022-09-21T10:13:46;12.10;71.30
16134;DHT22;8172;45.018;5.972;2022-09-21T10:18:56;12.10;71.50
16134;DHT22;8172;45.018;5.972;2022-09-21T10:29:21;12.20;70.50
16134;DHT22;8172;45.018;5.972;2022-09-21T10:34:29;12.30;70.40
16134;DHT22;8172;45.018;5.972;2022-09-21T10:39:41;12.50;70.20
16134;DHT22;8172;45.018;5.972;2022-09-21T10:44:52;12.60;70.00
16134;DHT22;8172;45.018;5.972;2022-09-21T10:49:59;12.70;69.70
16134;DHT22;8172;45.018;5.972;2022-09-21T11:05:31;13.10;68.10
16134;DHT22;8172;45.018;5.972;2022-09-21T11:20:58;13.70;68.30
16134;DHT22;8172;45.018;5.972;2022-09-21T11:26:11;13.90;67.50
16134;DHT22;8172;45.018;5.972;2022-09-21T11:57:11;14.90;65.50
16134;DHT22;8172;45.018;5.972;2022-09-21T12:07:33;15.20;64.50
16134;DHT22;8172;45.018;5.972;2022-09-21T12:12:42;15.40;63.90
16134;DHT22;8172;45.018;5.972;2022-09-21T12:22:58;15.60;63.60
16134;DHT22;8172;45.018;5.972;2022-09-21T12:28:09;15.80;63.50
16134;DHT22;8172;45.018;5.972;2022-09-21T12:33:19;15.90;63.10
16134;DHT22;8172;45.018;5.972;2022-09-21T12:43:36;16.20;63.00
16134;DHT22;8172;45.018;5.972;2022-09-21T12:48:43;16.30;62.40
16134;DHT22;8172;45.018;5.972;2022-09-21T12:53:53;16.40;61.40
16134;DHT22;8172;45.018;5.972;2022-09-21T13:09:23;16.80;61.10
16134;DHT22;8172;45.018;5.972;2022-09-21T13:14:35;16.90;60.20
16134;DHT22;8172;45.018;5.972;2022-09-21T13:19:43;17.00;60.10
16134;DHT22;8172;45.018;5.972;2022-09-21T13:50:41;17.40;59.10
16134;DHT22;8172;45.018;5.972;2022-09-21T13:55:59;17.50;59.00
16134;DHT22;8172;45.018;5.972;2022-09-21T14:06:22;17.50;58.40
16134;DHT22;8172;45.018;5.972;2022-09-21T14:11:29;17.60;58.30
16134;DHT22;8172;45.018;5.972;2022-09-21T14:27:00;17.70;57.60
16134;DHT22;8172;45.018;5.972;2022-09-21T14:32:14;17.70;57.40
16134;DHT22;8172;45.018;5.972;2022-09-21T14:37:24;17.70;57.60
16134;DHT22;8172;45.018;5.972;2022-09-21T14:42:32;17.70;58.00
16134;DHT22;8172;45.018;5.972;2022-09-21T14:58:06;17.30;58.70
16134;DHT22;8172;45.018;5.972;2022-09-21T15:18:44;17.20;59.10
16134;DHT22;8172;45.018;5.972;2022-09-21T15:23:52;17.00;59.30
16134;DHT22;8172;45.018;5.972;2022-09-21T15:29:02;16.80;59.60
16134;DHT22;8172;45.018;5.972;2022-09-21T15:34:15;16.60;59.70
16134;DHT22;8172;45.018;5.972;2022-09-21T15:44:33;16.30;60.20
16134;DHT22;8172;45.018;5.972;2022-09-21T15:49:42;16.10;60.40
16134;DHT22;8172;45.018;5.972;2022-09-21T15:54:56;16.00;60.70
16134;DHT22;8172;45.018;5.972;2022-09-21T16:00:04;15.80;60.90
16134;DHT22;8172;45.018;5.972;2022-09-21T16:05:14;15.60;61.00
16134;DHT22;8172;45.018;5.972;2022-09-21T16:15:33;15.40;61.30
16134;DHT22;8172;45.018;5.972;2022-09-21T16:20:44;15.30;61.50
16134;DHT22;8172;45.018;5.972;2022-09-21T16:25:55;15.20;61.50
16134;DHT22;8172;45.018;5.972;2022-09-21T16:41:33;14.90;61.90
16134;DHT22;8172;45.018;5.972;2022-09-21T16:46:37;14.80;62.00
16134;DHT22;8172;45.018;5.972;2022-09-21T16:51:47;14.70;62.20
16134;DHT22;8172;45.018;5.972;2022-09-21T16:56:56;14.70;62.30
16134;DHT22;8172;45.018;5.972;2022-09-21T17:02:03;14.60;62.20
16134;DHT22;8172;45.018;5.972;2022-09-21T17:07:12;14.50;62.40
16134;DHT22;8172;45.018;5.972;2022-09-21T17:12:20;14.40;62.50
16134;DHT22;8172;45.018;5.972;2022-09-21T17:17:29;14.30;62.70
16134;DHT22;8172;45.018;5.972;2022-09-21T17:22:38;14.30;62.90
16134;DHT22;8172;45.018;5.972;2022-09-21T17:27:45;14.20;63.20
16134;DHT22;8172;45.018;5.972;2022-09-21T17:32:52;14.10;63.50
16134;DHT22;8172;45.018;5.972;2022-09-21T17:38:00;14.00;63.80
16134;DHT22;8172;45.018;5.972;2022-09-21T17:48:19;13.70;64.60
16134;DHT22;8172;45.018;5.972;2022-09-21T17:53:27;13.50;64.90
16134;DHT22;8172;45.018;5.972;2022-09-21T17:58:40;13.40;65.10
16134;DHT22;8172;45.018;5.972;2022-09-21T18:03:48;13.30;65.50
16134;DHT22;8172;45.018;5.972;2022-09-21T18:08:55;13.20;65.70
16134;DHT22;8172;45.018;5.972;2022-09-21T18:24:21;13.00;66.20
16134;DHT22;8172;45.018;5.972;2022-09-21T18:29:32;13.00;66.50
16134;DHT22;8172;45.018;5.972;2022-09-21T18:45:05;12.90;66.70
16134;DHT22;8172;45.018;5.972;2022-09-21T18:55:23;12.90;66.80
16134;DHT22;8172;45.018;5.972;2022-09-21T19:00:32;13.00;66.80
16134;DHT22;8172;45.018;5.972;2022-09-21T19:05:45;12.90;66.80
16134;DHT22;8172;45.018;5.972;2022-09-21T19:16:07;12.80;67.00
16134;DHT22;8172;45.018;5.972;2022-09-21T19:26:24;12.70;67.20
16134;DHT22;8172;45.018;5.972;2022-09-21T19:31:30;12.70;67.20
16134;DHT22;8172;45.018;5.972;2022-09-21T19:36:39;12.70;67.20
16134;DHT22;8172;45.018;5.972;2022-09-21T19:41:55;12.70;67.20
16134;DHT22;8172;45.018;5.972;2022-09-21T19:52:07;12.70;67.30
16134;DHT22;8172;45.018;5.972;2022-09-21T19:57:17;12.70;67.30
16134;DHT22;8172;45.018;5.972;2022-09-21T20:02:28;12.60;67.40
16134;DHT22;8172;45.018;5.972;2022-09-21T20:12:51;12.50;67.60
16134;DHT22;8172;45.018;5.972;2022-09-21T20:18:02;12.40;67.60
16134;DHT22;8172;45.018;5.972;2022-09-21T20:23:10;12.40;67.60
16134;DHT22;8172;45.018;5.972;2022-09-21T20:28:18;12.30;67.50
16134;DHT22;8172;45.018;5.972;2022-09-21T20:33:26;12.30;67.80
16134;DHT22;8172;45.018;5.972;2022-09-21T20:38:36;12.30;68.00
16134;DHT22;8172;45.018;5.972;2022-09-21T20:43:43;12.20;68.10
16134;DHT22;8172;45.018;5.972;2022-09-21T20:48:51;12.20;68.10
16134;DHT22;8172;45.018;5.972;2022-09-21T20:54:00;12.10;67.70
16134;DHT22;8172;45.018;5.972;2022-09-21T20:59:08;12.10;67.60
16134;DHT22;8172;45.018;5.972;2022-09-21T21:04:15;12.00;67.90
16134;DHT22;8172;45.018;5.972;2022-09-21T21:09:23;12.00;68.20
16134;DHT22;8172;45.018;5.972;2022-09-21T21:14:30;12.00;68.30
16134;DHT22;8172;45.018;5.972;2022-09-21T21:19:37;11.90;68.60
16134;DHT22;8172;45.018;5.972;2022-09-21T21:24:44;11.90;68.70
16134;DHT22;8172;45.018;5.972;2022-09-21T21:29:54;11.90;68.70
16134;DHT22;8172;45.018;5.972;2022-09-21T21:35:01;11.90;68.70
16134;DHT22;8172;45.018;5.972;2022-09-21T21:40:09;11.90;68.80
16134;DHT22;8172;45.018;5.972;2022-09-21T21:45:17;11.90;68.70
16134;DHT22;8172;45.018;5.972;2022-09-21T21:50:25;11.90;68.80
16134;DHT22;8172;45.018;5.972;2022-09-21T21:55:33;11.80;68.80
16134;DHT22;8172;45.018;5.972;2022-09-21T22:00:40;11.80;68.80
16134;DHT22;8172;45.018;5.972;2022-09-21T22:05:47;11.80;68.80
16134;DHT22;8172;45.018;5.972;2022-09-21T22:10:55;11.80;68.90
16134;DHT22;8172;45.018;5.972;2022-09-21T22:16:06;11.80;69.00
16134;DHT22;8172;45.018;5.972;2022-09-21T22:21:16;11.70;69.00
16134;DHT22;8172;45.018;5.972;2022-09-21T22:26:26;11.70;69.00
16134;DHT22;8172;45.018;5.972;2022-09-21T22:31:36;11.70;69.10
16134;DHT22;8172;45.018;5.972;2022-09-21T22:36:44;11.60;69.30
16134;DHT22;8172;45.018;5.972;2022-09-21T22:41:51;11.60;69.40
16134;DHT22;8172;45.018;5.972;2022-09-21T22:46:58;11.60;69.20
16134;DHT22;8172;45.018;5.972;2022-09-21T22:52:06;11.50;69.20
16134;DHT22;8172;45.018;5.972;2022-09-21T22:57:13;11.60;69.40
16134;DHT22;8172;45.018;5.972;2022-09-21T23:02:20;11.60;69.50
16134;DHT22;8172;45.018;5.972;2022-09-21T23:07:27;11.60;69.50
16134;DHT22;8172;45.018;5.972;2022-09-21T23:12:34;11.60;69.40
16134;DHT22;8172;45.018;5.972;2022-09-21T23:17:42;11.60;69.40
16134;DHT22;8172;45.018;5.972;2022-09-21T23:22:49;11.50;69.60
16134;DHT22;8172;45.018;5.972;2022-09-21T23:27:56;11.50;69.60
16134;DHT22;8172;45.018;5.972;2022-09-21T23:33:05;11.50;69.80
16134;DHT22;8172;45.018;5.972;2022-09-21T23:38:12;11.50;69.90
16134;DHT22;8172;45.018;5.972;2022-09-21T23:43:19;11.50;70.00
16134;DHT22;8172;45.018;5.972;2022-09-21T23:48:26;11.40;70.00
16134;DHT22;8172;45.018;5.972;2022-09-21T23:53:34;11.40;70.10
16134;DHT22;8172;45.018;5.972;2022-09-21T23:58:41;11.40;70.00
